createdAt,value
2022-09-12T00:01:22.222Z,98317.97
2022-09-12T00:03:52.441Z,98317.75
2022-09-12T00:06:31.011Z,98308.66
2022-09-12T00:09:00.404Z,98307.66
2022-09-12T00:11:27.170Z,98303.69
2022-09-12T00:13:58.982Z,98305.91
2022-09-12T00:16:27.522Z,98296.13
2022-09-12T00:18:54.322Z,98293.69
2022-09-12T00:21:22.317Z,98299.19
2022-09-12T00:23:49.158Z,98304.28
2022-09-12T00:26:17.585Z,98282.09
2022-09-12T00:28:45.176Z,98290.25
2022-09-12T00:31:16.684Z,98287.66
2022-09-12T00:33:43.606Z,98285.81
2022-09-12T00:36:14.719Z,98288.56
2022-09-12T00:38:42.544Z,98291.47
2022-09-12T00:41:18.936Z,98299.38
2022-09-12T00:43:48.841Z,98293.22
2022-09-12T00:46:42.407Z,98282.75
2022-09-12T00:49:40.003Z,98283.09
2022-09-12T00:52:11.449Z,98285.19
2022-09-12T00:54:47.500Z,98286.09
2022-09-12T00:57:16.299Z,98280.06
2022-09-12T01:00:01.250Z,98283.09
2022-09-12T01:02:28.242Z,98279.59
2022-09-12T01:04:56.065Z,98280.50
2022-09-12T01:07:22.597Z,98278.91
2022-09-12T01:09:49.129Z,98277.25
2022-09-12T01:12:15.767Z,98276.81
2022-09-12T01:14:42.407Z,98277.50
2022-09-12T01:17:12.690Z,98277.06
2022-09-12T01:20:01.239Z,98268.00
2022-09-12T01:23:10.695Z,98271.00
2022-09-12T01:25:59.042Z,98257.28
2022-09-12T01:28:42.405Z,98253.47
2022-09-12T01:31:19.268Z,98263.66
2022-09-12T01:34:01.893Z,98259.63
2022-09-12T01:36:36.645Z,98252.50
2022-09-12T01:39:18.332Z,98257.41
2022-09-12T01:42:13.502Z,98251.06
2022-09-12T01:44:51.580Z,98255.81
2022-09-12T01:47:25.021Z,98257.41
2022-09-12T01:50:06.925Z,98245.13
2022-09-12T01:52:42.941Z,98241.91
2022-09-12T01:55:20.958Z,98251.88
2022-09-12T01:57:56.423Z,98242.47
2022-09-12T02:00:23.035Z,98242.47
2022-09-12T02:02:58.522Z,98248.13
2022-09-12T02:05:34.437Z,98233.38
2022-09-12T02:08:03.881Z,98234.44
2022-09-12T02:10:34.215Z,98231.78
2022-09-12T02:13:09.062Z,98208.19
2022-09-12T02:15:41.965Z,98237.44
2022-09-12T02:18:14.366Z,98235.59
2022-09-12T02:20:50.289Z,98240.69
2022-09-12T02:23:26.364Z,98240.88
2022-09-12T02:25:57.757Z,98241.63
2022-09-12T02:28:50.703Z,98237.06
2022-09-12T02:31:22.831Z,98234.81
2022-09-12T02:33:58.774Z,98227.59
2022-09-12T02:36:54.617Z,98225.59
2022-09-12T02:39:21.267Z,98222.97
2022-09-12T02:41:51.611Z,98226.59
2022-09-12T02:44:18.930Z,98226.56
2022-09-12T02:46:50.162Z,98229.88
2022-09-12T02:49:17.718Z,98224.00
2022-09-12T02:51:46.170Z,98228.81
2022-09-12T02:54:14.738Z,98223.66
2022-09-12T02:56:44.236Z,98225.50
2022-09-12T02:59:15.763Z,98181.97
2022-09-12T03:02:19.524Z,98219.63
2022-09-12T03:05:03.951Z,98224.25
2022-09-12T03:07:39.599Z,98224.69
2022-09-12T03:10:18.478Z,98217.53
2022-09-12T03:13:04.729Z,98222.97
2022-09-12T03:15:44.446Z,98212.59
2022-09-12T03:18:23.116Z,98214.28
2022-09-12T03:21:12.034Z,98213.13
2022-09-12T03:24:04.503Z,98215.69
2022-09-12T03:26:49.935Z,98209.81
2022-09-12T03:29:19.188Z,98200.94
2022-09-12T03:31:55.221Z,98209.22
2022-09-12T03:34:23.204Z,98209.22
2022-09-12T03:36:50.087Z,98211.31
2022-09-12T03:39:17.073Z,98211.09
2022-09-12T03:41:43.648Z,98209.13
2022-09-12T03:44:10.193Z,98208.44
2022-09-12T03:46:36.601Z,98209.13
2022-09-12T03:49:03.045Z,98203.47
2022-09-12T03:51:29.401Z,98207.03
2022-09-12T03:53:56.026Z,98208.81
2022-09-12T03:56:22.473Z,98208.50
2022-09-12T03:58:48.877Z,98208.66
2022-09-12T04:01:19.921Z,98203.03
2022-09-12T04:03:49.135Z,98210.78
2022-09-12T04:06:17.830Z,98206.56
2022-09-12T04:08:48.501Z,98190.66
2022-09-12T04:11:15.480Z,98201.84
2022-09-12T04:13:43.891Z,98204.44
2022-09-12T04:16:11.789Z,98215.47
2022-09-12T04:18:38.638Z,98209.31
2022-09-12T04:21:11.039Z,98196.59
2022-09-12T04:23:38.079Z,98207.78
2022-09-12T04:26:08.338Z,98207.34
2022-09-12T04:28:36.364Z,98205.53
2022-09-12T04:31:08.922Z,98209.84
2022-09-12T04:33:36.498Z,98202.06
2022-09-12T04:36:08.635Z,98208.66
2022-09-12T04:38:36.359Z,98208.66
2022-09-12T04:41:19.578Z,98207.03
2022-09-12T04:43:47.801Z,98202.41
2022-09-12T04:46:16.938Z,98204.06
2022-09-12T04:48:44.158Z,98198.47
2022-09-12T04:51:14.963Z,98199.78
2022-09-12T04:53:42.459Z,98193.69
2022-09-12T04:56:11.398Z,98193.25
2022-09-12T04:58:38.335Z,98192.59
2022-09-12T05:01:16.004Z,98190.31
2022-09-12T05:03:44.073Z,98196.81
2022-09-12T05:06:16.899Z,98188.81
2022-09-12T05:08:43.824Z,98191.63
2022-09-12T05:11:12.706Z,98185.28
2022-09-12T05:13:39.261Z,98179.56
2022-09-12T05:16:07.871Z,98146.63
2022-09-12T05:18:36.092Z,98189.41
2022-09-12T05:21:05.577Z,98191.78
2022-09-12T05:23:32.493Z,98190.47
2022-09-12T05:26:00.523Z,98198.59
2022-09-12T05:28:33.950Z,98199.72
2022-09-12T05:31:02.464Z,98188.66
2022-09-12T05:33:29.812Z,98199.34
2022-09-12T05:35:56.410Z,98195.19
2022-09-12T05:38:24.986Z,98195.94
2022-09-12T05:40:52.319Z,98197.09
2022-09-12T05:43:20.229Z,98187.03
2022-09-12T05:45:46.732Z,98187.31
2022-09-12T05:48:13.577Z,98194.88
2022-09-12T05:50:39.983Z,98196.59
2022-09-12T05:53:06.409Z,98202.13
2022-09-12T05:55:33.149Z,98205.28
2022-09-12T05:57:59.573Z,98198.00
2022-09-12T06:00:28.354Z,98203.94
2022-09-12T06:02:56.909Z,98208.28
2022-09-12T06:05:23.279Z,98200.25
2022-09-12T06:07:49.737Z,98195.41
2022-09-12T06:10:16.126Z,98207.75
2022-09-12T06:12:43.675Z,98205.78
2022-09-12T06:15:10.779Z,98197.00
2022-09-12T06:17:37.254Z,98197.94
2022-09-12T06:20:04.079Z,98196.88
2022-09-12T06:22:31.017Z,98197.97
2022-09-12T06:24:58.153Z,98192.56
2022-09-12T06:27:24.624Z,98186.94
2022-09-12T06:29:51.065Z,98186.75
2022-09-12T06:32:17.461Z,98181.66
2022-09-12T06:34:43.855Z,98185.09
2022-09-12T06:37:10.606Z,98193.06
2022-09-12T06:39:38.424Z,98191.06
2022-09-12T06:42:05.071Z,98192.00
2022-09-12T06:44:35.358Z,98197.41
2022-09-12T06:47:01.832Z,98189.47
2022-09-12T06:49:28.197Z,98199.25
2022-09-12T06:51:55.535Z,98193.38
2022-09-12T06:54:23.223Z,98202.81
2022-09-12T06:56:49.849Z,98198.78
2022-09-12T06:59:16.519Z,98189.31
2022-09-12T07:01:43.220Z,98204.16
2022-09-12T07:04:10.099Z,98197.41
2022-09-12T07:06:39.799Z,98196.63
2022-09-12T07:09:10.389Z,98197.16
2022-09-12T07:11:39.706Z,98186.34
2022-09-12T07:14:09.354Z,98184.16
2022-09-12T07:16:36.870Z,98183.09
2022-09-12T07:19:05.957Z,98168.78
2022-09-12T07:21:32.907Z,98165.84
2022-09-12T07:23:59.527Z,98160.16
2022-09-12T07:26:28.840Z,98160.41
2022-09-12T07:29:08.280Z,98168.22
2022-09-12T07:31:44.710Z,98166.19
2022-09-12T07:34:11.622Z,98169.72
2022-09-12T07:36:39.083Z,98160.63
2022-09-12T07:39:05.916Z,98179.03
2022-09-12T07:41:35.651Z,98170.94
2022-09-12T07:44:03.719Z,98170.34
2022-09-12T07:46:31.301Z,98181.53
2022-09-12T07:48:59.214Z,98175.72
2022-09-12T07:51:27.204Z,98177.31
2022-09-12T07:53:53.895Z,98176.91
2022-09-12T07:56:22.028Z,98180.09
2022-09-12T07:58:51.149Z,98173.91
2022-09-12T08:01:20.557Z,98175.59
2022-09-12T08:03:49.646Z,98120.28
2022-09-12T08:06:23.625Z,98182.03
2022-09-12T08:08:51.228Z,98174.09
2022-09-12T08:11:19.787Z,98171.59
2022-09-12T08:13:49.632Z,98182.13
2022-09-12T08:16:21.811Z,98172.97
2022-09-12T08:18:49.593Z,98174.44
2022-09-12T08:21:19.397Z,98173.28
2022-09-12T08:23:46.201Z,98171.06
2022-09-12T08:26:13.337Z,98182.16
2022-09-12T08:28:43.291Z,98177.72
2022-09-12T08:31:15.444Z,98182.00
2022-09-12T08:33:42.087Z,98175.91
2022-09-12T08:36:24.287Z,98183.75
2022-09-12T08:38:59.980Z,98177.66
2022-09-12T08:41:44.581Z,98181.91
2022-09-12T08:44:29.911Z,98177.31
2022-09-12T08:47:05.399Z,98169.97
2022-09-12T08:49:51.108Z,98172.47
2022-09-12T08:52:25.600Z,98176.59
2022-09-12T08:54:52.632Z,98183.03
2022-09-12T08:57:19.035Z,98180.84
2022-09-12T08:59:48.157Z,98178.59
2022-09-12T09:02:42.339Z,98183.44
2022-09-12T09:05:20.255Z,98178.97
2022-09-12T09:08:44.235Z,98181.91
2022-09-12T09:11:42.171Z,98179.19
2022-09-12T09:14:48.927Z,98183.53
2022-09-12T09:17:23.394Z,98182.78
2022-09-12T09:20:06.607Z,98175.66
2022-09-12T09:22:49.309Z,98171.91
2022-09-12T09:25:36.194Z,98171.19
2022-09-12T09:28:10.154Z,98168.47
2022-09-12T09:30:37.441Z,98169.34
2022-09-12T09:33:09.813Z,98178.06
2022-09-12T09:35:45.015Z,98178.16
2022-09-12T09:38:24.520Z,98173.63
2022-09-12T09:41:21.399Z,98170.47
2022-09-12T09:43:47.823Z,98170.28
2022-09-12T09:46:15.189Z,98160.94
2022-09-12T09:48:45.677Z,98166.84
2022-09-12T09:51:15.140Z,98159.78
2022-09-12T09:53:58.062Z,98164.03
2022-09-12T09:56:37.663Z,98156.00
2022-09-12T09:59:31.567Z,98154.63
2022-09-12T10:01:57.995Z,98149.63
2022-09-12T10:04:31.374Z,98150.28
2022-09-12T10:07:00.526Z,98145.31
2022-09-12T10:09:34.829Z,98144.88
2022-09-12T10:12:21.209Z,98142.47
2022-09-12T10:15:02.201Z,98130.34
2022-09-12T10:17:42.807Z,98128.81
2022-09-12T10:20:44.164Z,98125.03
2022-09-12T10:23:35.989Z,98121.72
2022-09-12T10:26:08.788Z,98115.94
2022-09-12T10:28:43.716Z,98116.97
2022-09-12T10:31:15.351Z,98116.75
2022-09-12T10:33:47.243Z,98119.72
2022-09-12T10:36:15.321Z,98104.94
2022-09-12T10:39:00.666Z,98102.28
2022-09-12T10:41:37.011Z,98107.91
2022-09-12T10:44:13.170Z,98113.41
2022-09-12T10:46:40.303Z,98113.28
2022-09-12T10:49:39.965Z,98066.72
2022-09-12T10:52:23.019Z,98106.78
2022-09-12T10:54:53.889Z,98083.50
2022-09-12T10:57:54.055Z,98098.34
2022-09-12T11:00:27.591Z,98104.47
2022-09-12T11:03:15.198Z,98103.81
2022-09-12T11:05:57.537Z,98094.91
2022-09-12T11:08:35.762Z,98090.44
2022-09-12T11:11:05.145Z,98091.34
2022-09-12T11:13:49.191Z,98086.16
2022-09-12T11:16:36.091Z,98088.78
2022-09-12T11:19:21.111Z,98078.59
2022-09-12T11:21:50.647Z,98078.50
2022-09-12T11:24:55.187Z,98082.66
2022-09-12T11:27:48.215Z,98080.88
2022-09-12T11:30:17.185Z,98071.66
2022-09-12T11:33:00.247Z,98066.63
2022-09-12T11:35:34.462Z,98070.81
2022-09-12T11:38:12.949Z,98069.75
2022-09-12T11:40:58.555Z,98064.91
2022-09-12T11:43:34.167Z,98068.41
2022-09-12T11:46:18.290Z,98073.91
2022-09-12T11:49:07.834Z,98067.16
2022-09-12T11:51:40.371Z,98069.19
2022-09-12T11:54:12.066Z,98069.09
2022-09-12T11:56:44.835Z,98064.72
2022-09-12T11:59:32.633Z,98061.31
2022-09-12T12:02:00.332Z,98062.84
2022-09-12T12:04:37.671Z,98060.19
2022-09-12T12:07:10.979Z,98058.06
2022-09-12T12:09:50.181Z,98044.72
2022-09-12T12:12:24.237Z,98047.97
2022-09-12T12:14:53.175Z,98040.91
2022-09-12T12:17:22.951Z,98040.84
2022-09-12T12:20:07.441Z,98043.50
2022-09-12T12:22:35.921Z,98037.75
2022-09-12T12:25:02.432Z,98044.13
2022-09-12T12:27:44.010Z,98045.34
2022-09-12T12:30:28.848Z,98035.72
2022-09-12T12:33:10.571Z,98039.16
2022-09-12T12:35:46.234Z,98039.41
2022-09-12T12:38:33.390Z,98037.06
2022-09-12T12:41:18.224Z,98032.88
2022-09-12T12:43:49.365Z,98033.09
2022-09-12T12:46:22.424Z,98024.09
2022-09-12T12:48:53.790Z,98019.44
2022-09-12T12:51:23.482Z,98022.47
2022-09-12T12:53:51.854Z,98011.31
2022-09-12T12:56:38.731Z,98017.16
2022-09-12T12:59:17.473Z,98008.16
2022-09-12T13:01:50.427Z,98012.78
2022-09-12T13:04:23.551Z,98005.00
2022-09-12T13:07:02.555Z,98014.03
2022-09-12T13:09:39.479Z,97991.44
2022-09-12T13:12:11.875Z,97990.94
2022-09-12T13:14:47.115Z,97986.50
2022-09-12T13:17:35.308Z,97986.94
2022-09-12T13:20:37.706Z,97978.47
2022-09-12T13:23:04.287Z,97986.13
2022-09-12T13:25:36.055Z,97987.81
2022-09-12T13:28:11.246Z,97979.91
2022-09-12T13:30:42.446Z,97977.06
2022-09-12T13:33:26.953Z,97973.34
2022-09-12T13:36:15.042Z,97968.53
2022-09-12T13:38:44.578Z,97962.53
2022-09-12T13:41:38.406Z,97967.81
2022-09-12T13:44:10.566Z,97953.88
2022-09-12T13:46:37.861Z,97970.72
2022-09-12T13:49:34.214Z,97956.16
2022-09-12T13:52:21.188Z,97963.72
2022-09-12T13:54:51.920Z,97950.91
2022-09-12T13:57:30.770Z,97940.50
2022-09-12T13:59:58.692Z,97939.63
2022-09-12T14:02:28.651Z,97940.34
2022-09-12T14:05:11.391Z,97935.09
2022-09-12T14:07:54.877Z,97942.03
2022-09-12T14:10:27.063Z,97943.00
2022-09-12T14:12:56.082Z,97947.31
2022-09-12T14:15:27.310Z,97944.28
2022-09-12T14:18:00.985Z,97945.41
2022-09-12T14:20:35.139Z,97946.38
2022-09-12T14:23:32.877Z,97952.47
2022-09-12T14:26:07.661Z,97937.69
2022-09-12T14:28:35.123Z,97931.59
2022-09-12T14:31:07.745Z,97926.31
2022-09-12T14:33:47.451Z,97928.41
2022-09-12T14:36:22.043Z,97917.63
2022-09-12T14:38:52.523Z,97914.59
2022-09-12T14:41:26.294Z,97917.97
2022-09-12T14:43:58.131Z,97913.34
2022-09-12T14:46:30.517Z,97909.75
2022-09-12T14:49:33.314Z,97904.31
2022-09-12T14:52:24.740Z,97900.44
2022-09-12T14:55:30.734Z,97900.47
2022-09-12T14:58:15.994Z,97892.31
2022-09-12T15:01:03.761Z,97881.91
2022-09-12T15:03:55.785Z,97887.19
2022-09-12T15:06:36.122Z,97884.28
2022-09-12T15:09:07.031Z,97885.56
2022-09-12T15:11:33.793Z,97891.53
2022-09-12T15:14:12.793Z,97894.13
2022-09-12T15:16:39.310Z,97893.75
2022-09-12T15:19:05.683Z,97892.44
2022-09-12T15:21:32.640Z,97897.06
2022-09-12T15:23:59.181Z,97895.44
2022-09-12T15:26:30.408Z,97892.56
2022-09-12T15:28:56.907Z,97889.00
2022-09-12T15:31:26.220Z,97891.09
2022-09-12T15:33:54.092Z,97890.16
2022-09-12T15:36:22.809Z,97891.53
2022-09-12T15:38:50.477Z,97885.75
2022-09-12T15:41:22.831Z,97883.84
2022-09-12T15:43:50.210Z,97779.81
2022-09-12T15:46:18.404Z,97886.28
2022-09-12T15:48:45.335Z,97880.06
2022-09-12T15:51:19.993Z,97882.28
2022-09-12T15:53:48.356Z,97874.59
2022-09-12T15:56:17.241Z,97873.47
2022-09-12T15:58:57.760Z,97877.25
2022-09-12T16:01:26.652Z,97874.66
2022-09-12T16:03:53.162Z,97867.09
2022-09-12T16:06:19.578Z,97865.16
2022-09-12T16:08:46.093Z,97871.25
2022-09-12T16:11:21.296Z,97863.44
2022-09-12T16:13:48.464Z,97859.78
2022-09-12T16:16:15.659Z,97860.13
2022-09-12T16:18:42.332Z,97853.56
2022-09-12T16:21:14.053Z,97860.56
2022-09-12T16:23:45.937Z,97863.91
2022-09-12T16:26:12.750Z,97856.38
2022-09-12T16:28:39.374Z,97855.28
2022-09-12T16:31:07.921Z,97852.06
2022-09-12T16:33:34.715Z,97860.06
2022-09-12T16:36:12.801Z,97848.97
2022-09-12T16:38:44.236Z,97842.31
2022-09-12T16:41:11.122Z,97855.44
2022-09-12T16:43:38.072Z,97851.75
2022-09-12T16:46:08.075Z,97850.53
2022-09-12T16:48:34.667Z,97848.22
2022-09-12T16:51:03.765Z,97847.19
2022-09-12T16:53:35.142Z,97847.53
2022-09-12T16:56:01.806Z,97853.31
2022-09-12T16:58:31.551Z,97855.44
2022-09-12T17:01:25.060Z,97849.56
2022-09-12T17:03:56.502Z,97844.25
2022-09-12T17:06:25.018Z,97846.16
2022-09-12T17:08:53.187Z,97840.69
2022-09-12T17:11:24.208Z,97852.91
2022-09-12T17:14:04.296Z,97846.09
2022-09-12T17:16:51.469Z,97847.34
2022-09-12T17:19:27.938Z,97832.69
2022-09-12T17:21:54.714Z,97822.59
2022-09-12T17:24:21.788Z,97840.00
2022-09-12T17:26:48.720Z,97839.22
2022-09-12T17:29:16.361Z,97844.03
2022-09-12T17:31:44.064Z,97843.34
2022-09-12T17:34:14.271Z,97845.94
2022-09-12T17:36:44.065Z,97850.56
2022-09-12T17:39:11.590Z,97855.66
2022-09-12T17:41:38.442Z,97855.66
2022-09-12T17:44:07.229Z,97862.63
2022-09-12T17:46:36.617Z,97862.13
2022-09-12T17:49:05.774Z,97860.28
2022-09-12T17:51:32.752Z,97865.91
2022-09-12T17:54:08.569Z,97868.00
2022-09-12T17:56:36.935Z,97864.50
2022-09-12T17:59:04.853Z,97868.06
2022-09-12T18:01:50.116Z,97868.88
2022-09-12T18:04:17.550Z,97874.03
2022-09-12T18:06:48.619Z,97836.44
2022-09-12T18:09:19.379Z,97868.22
2022-09-12T18:11:46.295Z,97881.47
2022-09-12T18:14:14.301Z,97873.34
2022-09-12T18:16:42.593Z,97873.84
2022-09-12T18:19:09.573Z,97857.41
2022-09-12T18:21:36.092Z,97853.22
2022-09-12T18:24:03.085Z,97875.53
2022-09-12T18:26:30.635Z,97875.34
2022-09-12T18:28:57.884Z,97874.91
2022-09-12T18:31:27.637Z,97871.56
2022-09-12T18:33:54.559Z,97847.69
2022-09-12T18:36:22.178Z,97881.63
2022-09-12T18:38:49.044Z,97886.00
2022-09-12T18:41:19.209Z,97867.19
2022-09-12T18:43:46.393Z,97879.13
2022-09-12T18:46:15.373Z,97880.81
2022-09-12T18:48:42.397Z,97857.56
2022-09-12T18:51:20.888Z,97878.81
2022-09-12T18:53:56.227Z,97883.31
2022-09-12T18:56:24.909Z,97881.25
2022-09-12T18:58:53.572Z,97883.94
2022-09-12T19:01:25.395Z,97876.03
2022-09-12T19:03:54.078Z,97887.28
2022-09-12T19:06:32.015Z,97886.22
2022-09-12T19:09:01.696Z,97876.56
2022-09-12T19:11:30.382Z,97889.06
2022-09-12T19:13:57.052Z,97893.91
2022-09-12T19:16:26.816Z,97886.38
2022-09-12T19:18:55.498Z,97883.41
2022-09-12T19:21:27.480Z,97879.38
2022-09-12T19:23:57.402Z,97883.75
2022-09-12T19:26:23.833Z,97881.56
2022-09-12T19:28:50.531Z,97874.63
2022-09-12T19:31:18.967Z,97868.13
2022-09-12T19:33:46.671Z,97867.66
2022-09-12T19:36:40.842Z,97862.88
2022-09-12T19:39:06.019Z,97864.84
2022-09-12T19:41:33.004Z,97854.34
2022-09-12T19:43:59.470Z,97852.19
2022-09-12T19:46:26.980Z,97843.31
2022-09-12T19:48:54.122Z,97846.56
2022-09-12T19:51:23.836Z,97851.44
2022-09-12T19:53:50.886Z,97856.03
2022-09-12T19:56:17.338Z,97861.13
2022-09-12T19:58:46.291Z,97869.22
2022-09-12T20:01:21.411Z,97875.94
2022-09-12T20:03:48.896Z,97872.47
2022-09-12T20:06:17.395Z,97874.38
2022-09-12T20:08:44.323Z,97857.69
2022-09-12T20:11:15.772Z,97843.13
2022-09-12T20:13:42.275Z,97845.81
2022-09-12T20:16:10.997Z,97830.22
2022-09-12T20:18:38.136Z,97841.75
2022-09-12T20:21:10.600Z,97840.97
2022-09-12T20:23:37.227Z,97841.75
2022-09-12T20:26:04.431Z,97846.06
2022-09-12T20:28:31.145Z,97853.59
2022-09-12T20:31:10.131Z,97794.63
2022-09-12T20:33:36.733Z,97848.75
2022-09-12T20:36:05.803Z,97860.59
2022-09-12T20:38:32.315Z,97849.56
2022-09-12T20:41:00.954Z,97852.22
2022-09-12T20:43:27.765Z,97844.63
2022-09-12T20:45:54.246Z,97844.09
2022-09-12T20:48:20.727Z,97839.25
2022-09-12T20:50:47.311Z,97826.91
2022-09-12T20:53:14.658Z,97817.75
2022-09-12T20:55:49.052Z,97824.22
2022-09-12T20:58:15.449Z,97824.47
2022-09-12T21:00:42.012Z,97829.75
2022-09-12T21:03:08.465Z,97826.22
2022-09-12T21:05:34.879Z,97820.28
2022-09-12T21:08:01.522Z,97817.06
2022-09-12T21:10:27.910Z,97812.25
2022-09-12T21:12:54.334Z,97804.69
2022-09-12T21:15:20.703Z,97808.84
2022-09-12T21:17:47.115Z,97812.09
2022-09-12T21:20:13.556Z,97814.25
2022-09-12T21:22:40.207Z,97821.50
2022-09-12T21:25:07.022Z,97823.41
2022-09-12T21:27:33.468Z,97813.00
2022-09-12T21:30:00.558Z,97804.41
2022-09-12T21:32:26.927Z,97805.19
2022-09-12T21:34:53.339Z,97809.19
2022-09-12T21:37:20.443Z,97810.47
2022-09-12T21:39:46.914Z,97809.97
2022-09-12T21:42:13.394Z,97816.63
2022-09-12T21:44:39.754Z,97818.59
2022-09-12T21:47:06.163Z,97816.63
2022-09-12T21:49:32.820Z,97813.16
2022-09-12T21:51:59.259Z,97810.97
2022-09-12T21:54:25.684Z,97813.13
2022-09-12T21:56:52.131Z,97816.88
2022-09-12T21:59:18.539Z,97826.53
2022-09-12T22:01:44.964Z,97831.88
2022-09-12T22:04:11.399Z,97831.63
2022-09-12T22:06:37.794Z,97831.00
2022-09-12T22:09:05.721Z,97834.84
2022-09-12T22:11:32.098Z,97821.94
2022-09-12T22:13:59.463Z,97823.03
2022-09-12T22:16:26.823Z,97830.47
2022-09-12T22:18:54.241Z,97826.69
2022-09-12T22:21:22.071Z,97817.00
2022-09-12T22:24:06.810Z,97799.78
2022-09-12T22:26:43.266Z,97801.78
2022-09-12T22:29:11.079Z,97798.03
2022-09-12T22:31:38.129Z,97792.53
2022-09-12T22:34:04.749Z,97797.63
2022-09-12T22:36:34.914Z,97788.53
2022-09-12T22:39:03.577Z,97784.72
2022-09-12T22:41:29.999Z,97794.97
2022-09-12T22:43:57.678Z,97792.59
2022-09-12T22:46:24.694Z,97801.47
2022-09-12T22:48:51.332Z,97734.72
2022-09-12T22:51:18.041Z,97781.31
2022-09-12T22:53:44.834Z,97778.34
2022-09-12T22:56:11.507Z,97781.22
2022-09-12T22:58:37.943Z,97785.84
2022-09-12T23:01:06.131Z,97770.22
2022-09-12T23:03:33.143Z,97786.84
2022-09-12T23:05:59.807Z,97784.47
2022-09-12T23:08:29.701Z,97789.56
2022-09-12T23:11:05.140Z,97789.56
2022-09-12T23:13:32.405Z,97781.78
2022-09-12T23:16:00.274Z,97778.34
2022-09-12T23:18:27.483Z,97729.19
2022-09-12T23:21:06.224Z,97779.09
2022-09-12T23:23:32.962Z,97782.53
2022-09-12T23:26:12.555Z,97787.72
2022-09-12T23:28:47.189Z,97782.34
2022-09-12T23:31:13.622Z,97784.78
2022-09-12T23:33:40.435Z,97783.00
2022-09-12T23:36:11.294Z,97790.44
2022-09-12T23:38:37.785Z,97783.50
2022-09-12T23:41:04.770Z,97774.38
2022-09-12T23:43:31.658Z,97766.69
2022-09-12T23:45:58.814Z,97769.19
2022-09-12T23:48:25.412Z,97765.47
2022-09-12T23:50:52.101Z,97763.97
2022-09-12T23:53:19.515Z,97743.75
2022-09-12T23:55:46.743Z,97758.06
2022-09-12T23:58:14.053Z,97751.03
